Time,TemperatureF,DewpointF,PressureIn,WindDirection,WindDirectionDegrees,WindSpeedMPH,WindSpeedGustMPH,Humidity,HourlyPrecipIn,Conditions,Clouds,dailyrainin,SoftwareType,DateUTC
2013-09-26 00:09:00,44.7,43.0,30.02,NNE,31,1.0,1.0,94,0.00,,,0.00,weatherlink.com 1.10,2013-09-26 04:09:00,
2013-09-26 00:24:00,43.6,42.0,30.02,NNE,31,0.0,1.0,95,0.00,,,0.00,weatherlink.com 1.10,2013-09-26 04:24:00,
2013-09-26 00:39:00,43.1,42.0,30.02,NNE,31,0.0,1.0,96,0.00,,,0.00,weatherlink.com 1.10,2013-09-26 04:39:00,
2013-09-26 00:54:00,42.8,42.0,30.02,NNE,31,0.0,1.0,97,0.00,,,0.00,weatherlink.com 1.10,2013-09-26 04:54:00,
2013-09-26 01:09:00,42.5,42.0,30.02,NNE,31,0.0,1.0,97,0.00,,,0.00,weatherlink.com 1.10,2013-09-26 05:09:00,
2013-09-26 01:24:00,41.9,41.0,30.03,NNE,32,2.0,2.0,97,0.00,,,0.00,weatherlink.com 1.10,2013-09-26 05:24:00,
2013-09-26 01:39:00,42.0,42.0,30.03,NE,43,1.0,2.0,98,0.00,,,0.00,weatherlink.com 1.10,2013-09-26 05:39:00,
2013-09-26 01:54:00,42.7,42.0,30.03,NE,43,1.0,1.0,98,0.00,,,0.00,weatherlink.com 1.10,2013-09-26 05:54:00,
2013-09-26 02:09:00,43.7,44.0,30.03,NE,43,0.0,1.0,99,0.00,,,0.00,weatherlink.com 1.10,2013-09-26 06:09:00,
2013-09-26 02:24:00,44.3,44.0,30.04,NE,43,0.0,0.0,98,0.00,,,0.00,weatherlink.com 1.10,2013-09-26 06:24:00,
2013-09-26 02:39:00,44.7,44.0,30.04,NE,42,0.0,1.0,98,0.00,,,0.00,weatherlink.com 1.10,2013-09-26 06:39:00,
2013-09-26 02:54:00,45.1,45.0,30.04,NE,42,1.0,1.0,98,0.00,,,0.00,weatherlink.com 1.10,2013-09-26 06:54:00,
2013-09-26 03:09:00,45.3,45.0,30.04,NE,43,0.0,1.0,97,0.00,,,0.00,weatherlink.com 1.10,2013-09-26 07:09:00,
2013-09-26 03:24:00,45.5,45.0,30.04,NE,43,0.0,1.0,97,0.00,,,0.00,weatherlink.com 1.10,2013-09-26 07:24:00,
2013-09-26 03:39:00,45.5,45.0,30.04,NE,42,0.0,1.0,97,0.00,,,0.00,weatherlink.com 1.10,2013-09-26 07:39:00,
2013-09-26 03:54:00,45.5,45.0,30.04,NE,43,0.0,0.0,96,0.00,,,0.00,weatherlink.com 1.10,2013-09-26 07:54:00,
2013-09-26 04:09:00,45.5,45.0,30.04,NE,43,0.0,1.0,97,0.00,,,0.00,weatherlink.com 1.10,2013-09-26 08:09:00,
2013-09-26 04:24:00,45.5,45.0,30.05,NE,43,0.0,1.0,96,0.00,,,0.00,weatherlink.com 1.10,2013-09-26 08:24:00,
2013-09-26 04:39:00,45.7,44.0,30.05,NE,43,0.0,1.0,95,0.00,,,0.00,weatherlink.com 1.10,2013-09-26 08:39:00,
2013-09-26 04:54:00,45.8,45.0,30.05,NE,44,0.0,1.0,95,0.00,,,0.00,weatherlink.com 1.10,2013-09-26 08:54:00,
2013-09-26 05:09:00,46.0,45.0,30.05,NW,306,0.0,3.0,95,0.00,,,0.00,weatherlink.com 1.10,2013-09-26 09:09:00,
2013-09-26 05:24:00,45.9,44.0,30.05,NNE,24,0.0,1.0,94,0.00,,,0.00,weatherlink.com 1.10,2013-09-26 09:24:00,
2013-09-26 05:39:00,45.9,44.0,30.05,NNE,27,0.0,3.0,94,0.00,,,0.00,weatherlink.com 1.10,2013-09-26 09:39:00,
2013-09-26 05:54:00,45.8,44.0,30.05,North,11,0.0,1.0,94,0.00,,,0.00,weatherlink.com 1.10,2013-09-26 09:54:00,
2013-09-26 06:09:00,45.6,44.0,30.05,North,10,0.0,0.0,95,0.00,,,0.00,weatherlink.com 1.10,2013-09-26 10:09:00,
2013-09-26 06:24:00,45.5,44.0,30.05,North,11,0.0,1.0,95,0.00,,,0.00,weatherlink.com 1.10,2013-09-26 10:24:00,
2013-09-26 06:39:00,45.5,44.0,30.05,North,10,0.0,1.0,95,0.00,,,0.00,weatherlink.com 1.10,2013-09-26 10:39:00,
2013-09-26 06:54:00,45.6,44.0,30.06,North,10,0.0,1.0,94,0.00,,,0.00,weatherlink.com 1.10,2013-09-26 10:54:00,
2013-09-26 07:09:00,45.7,44.0,30.06,North,11,0.0,0.0,93,0.00,,,0.00,weatherlink.com 1.10,2013-09-26 11:09:00,
2013-09-26 07:24:00,46.0,44.0,30.07,North,10,0.0,0.0,94,0.00,,,0.00,weatherlink.com 1.10,2013-09-26 11:24:00,
2013-09-26 07:39:00,46.3,44.0,30.07,SSE,168,0.0,1.0,93,0.00,,,0.00,weatherlink.com 1.10,2013-09-26 11:39:00,
2013-09-26 07:54:00,46.6,44.0,30.07,SSE,160,0.0,1.0,91,0.00,,,0.00,weatherlink.com 1.10,2013-09-26 11:54:00,
2013-09-26 08:09:00,47.2,45.0,30.08,SSE,159,0.0,1.0,91,0.00,,,0.00,weatherlink.com 1.10,2013-09-26 12:09:00,
2013-09-26 08:25:00,47.9,45.0,30.08,SSE,166,0.0,1.0,90,0.00,,,0.00,weatherlink.com 1.10,2013-09-26 12:25:00,
2013-09-26 08:40:00,48.4,45.0,30.08,NW,325,1.0,3.0,88,0.00,,,0.00,weatherlink.com 1.10,2013-09-26 12:40:00,
2013-09-26 08:55:00,49.4,46.0,30.08,WNW,302,1.0,3.0,88,0.00,,,0.00,weatherlink.com 1.10,2013-09-26 12:55:00,
2013-09-26 09:10:00,49.7,46.0,30.08,SW,223,0.0,2.0,86,0.00,,,0.00,weatherlink.com 1.10,2013-09-26 13:10:00,
2013-09-26 09:25:00,51.1,46.0,30.09,NW,324,0.0,3.0,84,0.00,,,0.00,weatherlink.com 1.10,2013-09-26 13:25:00,
2013-09-26 09:40:00,51.0,46.0,30.09,SSE,160,3.0,6.0,83,0.00,,,0.00,weatherlink.com 1.10,2013-09-26 13:40:00,
2013-09-26 09:55:00,51.4,46.0,30.09,ESE,107,0.0,5.0,81,0.00,,,0.00,weatherlink.com 1.10,2013-09-26 13:55:00,
2013-09-26 10:10:00,51.4,46.0,30.10,WSW,238,3.0,4.0,82,0.00,,,0.00,weatherlink.com 1.10,2013-09-26 14:10:00,
2013-09-26 10:25:00,52.0,46.0,30.10,SE,129,0.0,3.0,79,0.00,,,0.00,weatherlink.com 1.10,2013-09-26 14:25:00,
2013-09-26 10:40:00,53.2,46.0,30.10,WNW,298,1.0,2.0,77,0.00,,,0.00,weatherlink.com 1.10,2013-09-26 14:40:00,
2013-09-26 10:55:00,55.1,47.0,30.10,SW,221,1.0,5.0,74,0.00,,,0.00,weatherlink.com 1.10,2013-09-26 14:55:00,
2013-09-26 11:10:00,57.3,48.0,30.10,ENE,61,1.0,5.0,70,0.00,,,0.00,weatherlink.com 1.10,2013-09-26 15:10:00,
2013-09-26 11:25:00,57.4,47.0,30.10,WSW,244,1.0,5.0,69,0.00,,,0.00,weatherlink.com 1.10,2013-09-26 15:25:00,
2013-09-26 11:40:00,57.2,48.0,30.10,SSW,206,3.0,6.0,71,0.00,,,0.00,weatherlink.com 1.10,2013-09-26 15:40:00,
2013-09-26 11:55:00,57.2,47.0,30.10,SSW,195,2.0,8.0,69,0.00,,,0.00,weatherlink.com 1.10,2013-09-26 15:55:00,
2013-09-26 12:10:00,56.3,47.0,30.11,NE,46,1.0,3.0,70,0.00,,,0.00,weatherlink.com 1.10,2013-09-26 16:10:00,
2013-09-26 12:25:00,55.8,46.0,30.10,NNW,340,1.0,2.0,69,0.00,,,0.00,weatherlink.com 1.10,2013-09-26 16:25:00,
2013-09-26 12:40:00,56.7,48.0,30.10,NW,320,1.0,6.0,72,0.00,,,0.00,weatherlink.com 1.10,2013-09-26 16:40:00,
2013-09-26 12:55:00,55.8,48.0,30.09,SE,141,1.0,5.0,74,0.00,,,0.00,weatherlink.com 1.10,2013-09-26 16:55:00,
2013-09-26 13:10:00,56.1,48.0,30.09,NNE,15,0.0,4.0,73,0.00,,,0.00,weatherlink.com 1.10,2013-09-26 17:10:00,
2013-09-26 13:25:00,56.0,47.0,30.09,SSW,200,0.0,2.0,73,0.00,,,0.00,weatherlink.com 1.10,2013-09-26 17:25:00,
2013-09-26 13:40:00,55.9,47.0,30.09,WSW,244,0.0,5.0,72,0.00,,,0.00,weatherlink.com 1.10,2013-09-26 17:40:00,
2013-09-26 13:55:00,55.6,47.0,30.09,South,184,0.0,7.0,74,0.00,,,0.00,weatherlink.com 1.10,2013-09-26 17:55:00,
2013-09-26 14:10:00,56.4,48.0,30.09,SSE,161,0.0,3.0,73,0.00,,,0.00,weatherlink.com 1.10,2013-09-26 18:10:00,
2013-09-26 14:25:00,56.7,48.0,30.09,West,271,0.0,5.0,72,0.00,,,0.00,weatherlink.com 1.10,2013-09-26 18:25:00,
2013-09-26 14:40:00,56.7,49.0,30.09,WSW,254,4.0,4.0,74,0.00,,,0.00,weatherlink.com 1.10,2013-09-26 18:40:00,
2013-09-26 14:55:00,56.3,48.0,30.09,SW,229,0.0,6.0,73,0.00,,,0.00,weatherlink.com 1.10,2013-09-26 18:55:00,
2013-09-26 15:10:00,57.1,49.0,30.09,NW,324,0.0,3.0,73,0.00,,,0.00,weatherlink.com 1.10,2013-09-26 19:10:00,
2013-09-26 15:25:00,57.6,50.0,30.09,East,84,0.0,1.0,75,0.00,,,0.00,weatherlink.com 1.10,2013-09-26 19:25:00,
2013-09-26 15:40:00,57.3,49.0,30.09,WSW,253,0.0,4.0,74,0.00,,,0.00,weatherlink.com 1.10,2013-09-26 19:40:00,
2013-09-26 15:55:00,57.3,49.0,30.09,ESE,119,0.0,3.0,74,0.00,,,0.00,weatherlink.com 1.10,2013-09-26 19:55:00,
2013-09-26 16:10:00,57.0,49.0,30.09,South,180,0.0,3.0,74,0.00,,,0.00,weatherlink.com 1.10,2013-09-26 20:10:00,
2013-09-26 16:25:00,56.7,49.0,30.10,NW,307,0.0,1.0,76,0.00,,,0.00,weatherlink.com 1.10,2013-09-26 20:25:00,
2013-09-26 16:40:00,56.1,49.0,30.10,SSE,153,0.0,1.0,77,0.00,,,0.00,weatherlink.com 1.10,2013-09-26 20:40:00,
2013-09-26 16:55:00,55.8,49.0,30.10,ESE,115,0.0,2.0,79,0.00,,,0.00,weatherlink.com 1.10,2013-09-26 20:55:00,
2013-09-26 17:10:00,55.4,49.0,30.11,ESE,111,0.0,1.0,79,0.00,,,0.00,weatherlink.com 1.10,2013-09-26 21:10:00,
2013-09-26 17:25:00,55.0,50.0,30.11,SW,221,0.0,1.0,82,0.00,,,0.00,weatherlink.com 1.10,2013-09-26 21:25:00,
2013-09-26 17:40:00,54.5,49.0,30.11,South,176,0.0,1.0,83,0.00,,,0.00,weatherlink.com 1.10,2013-09-26 21:40:00,
2013-09-26 17:55:00,53.8,49.0,30.11,SW,217,0.0,1.0,84,0.00,,,0.00,weatherlink.com 1.10,2013-09-26 21:55:00,
2013-09-26 18:10:00,53.0,49.0,30.12,SW,233,0.0,1.0,86,0.00,,,0.00,weatherlink.com 1.10,2013-09-26 22:10:00,
2013-09-26 18:25:00,52.4,49.0,30.12,SW,234,0.0,1.0,89,0.00,,,0.00,weatherlink.com 1.10,2013-09-26 22:25:00,
2013-09-26 18:40:00,52.1,49.0,30.12,SE,138,0.0,1.0,89,0.00,,,0.00,weatherlink.com 1.10,2013-09-26 22:40:00,
2013-09-26 18:55:00,52.0,49.0,30.12,SE,144,0.0,1.0,89,0.00,,,0.00,weatherlink.com 1.10,2013-09-26 22:55:00,
2013-09-26 19:10:00,51.9,49.0,30.13,South,183,0.0,1.0,89,0.00,,,0.00,weatherlink.com 1.10,2013-09-26 23:10:00,
2013-09-26 19:26:00,51.9,49.0,30.13,ESE,110,0.0,1.0,88,0.00,,,0.00,weatherlink.com 1.10,2013-09-26 23:26:00,
2013-09-26 19:41:00,51.8,48.0,30.14,NNE,27,0.0,1.0,88,0.00,,,0.00,weatherlink.com 1.10,2013-09-26 23:41:00,
2013-09-26 19:56:00,51.7,49.0,30.14,ENE,74,0.0,0.0,89,0.00,,,0.00,weatherlink.com 1.10,2013-09-26 23:56:00,
2013-09-26 20:11:00,51.6,49.0,30.15,NNE,17,0.0,1.0,89,0.00,,,0.00,weatherlink.com 1.10,2013-09-27 00:11:00,
2013-09-26 20:41:00,51.4,49.0,30.15,NNE,16,0.0,1.0,90,0.00,,,0.00,weatherlink.com 1.10,2013-09-27 00:41:00,
2013-09-26 20:56:00,51.2,49.0,30.15,South,183,0.0,1.0,91,0.00,,,0.00,weatherlink.com 1.10,2013-09-27 00:56:00,
2013-09-26 21:11:00,51.1,48.0,30.15,NNE,20,0.0,2.0,90,0.00,,,0.00,weatherlink.com 1.10,2013-09-27 01:11:00,
2013-09-26 21:26:00,51.0,49.0,30.16,West,280,0.0,1.0,91,0.00,,,0.00,weatherlink.com 1.10,2013-09-27 01:26:00,
2013-09-26 21:41:00,50.9,48.0,30.16,West,279,0.0,1.0,91,0.00,,,0.00,weatherlink.com 1.10,2013-09-27 01:41:00,
2013-09-26 21:56:00,50.7,48.0,30.16,NNE,17,0.0,1.0,91,0.00,,,0.00,weatherlink.com 1.10,2013-09-27 01:56:00,
2013-09-26 22:11:00,50.6,48.0,30.16,NNE,13,0.0,1.0,91,0.00,,,0.00,weatherlink.com 1.10,2013-09-27 02:11:00,
2013-09-26 22:26:00,50.5,48.0,30.16,NNE,19,0.0,1.0,91,0.00,,,0.00,weatherlink.com 1.10,2013-09-27 02:26:00,
2013-09-26 22:41:00,50.4,48.0,30.16,East,98,1.0,1.0,91,0.00,,,0.00,weatherlink.com 1.10,2013-09-27 02:41:00,
2013-09-26 22:56:00,50.4,48.0,30.17,NNW,348,0.0,1.0,92,0.00,,,0.00,weatherlink.com 1.10,2013-09-27 02:56:00,
2013-09-26 23:11:00,50.3,48.0,30.17,NNE,26,1.0,2.0,92,0.00,,,0.00,weatherlink.com 1.10,2013-09-27 03:11:00,
2013-09-26 23:26:00,50.1,48.0,30.17,NNW,344,1.0,1.0,92,0.00,,,0.00,weatherlink.com 1.10,2013-09-27 03:26:00,
2013-09-26 23:41:00,50.1,48.0,30.17,NNE,28,0.0,1.0,93,0.00,,,0.00,weatherlink.com 1.10,2013-09-27 03:41:00,
2013-09-26 23:56:00,50.0,48.0,30.17,NNE,28,0.0,1.0,93,0.00,,,0.00,weatherlink.com 1.10,2013-09-27 03:56:00,